Time;durP1;ratioP1;P1;durP2;ratioP2;P2;SDS_P1;SDS_P2;PMS_P1;PMS_P2;Temp;Humidity;BMP_temperature;BMP_pressure;BME280_temperature;BME280_humidity;BME280_pressure;Samples;Min_cycle;Max_cycle;Signal;HPM_P1;HPM_P2
2021/03/02 00:01:09;;;;;;;56.17;22.60;;;;;;;8.01;62.37;101626.16;5039514;28;20037;-68
2021/03/02 00:03:37;;;;;;;36.80;16.83;;;;;;;8.08;60.66;101623.13;5034852;28;20192;-75
2021/03/02 00:06:06;;;;;;;43.67;18.00;;;;;;;8.06;61.20;101625.03;5040302;28;20083;-75
2021/03/02 00:08:35;;;;;;;49.25;20.73;;;;;;;8.20;61.98;101622.31;5034712;28;20068;-75
2021/03/02 00:11:01;;;;;;;59.05;24.08;;;;;;;8.11;61.76;101629.06;5037021;28;20037;-75
2021/03/02 00:13:28;;;;;;;45.20;17.83;;;;;;;8.22;62.03;101629.19;5035203;28;20057;-75
2021/03/02 00:15:56;;;;;;;37.38;15.23;;;;;;;8.15;62.64;101622.63;5039903;28;20025;-75
2021/03/02 00:18:26;;;;;;;31.77;13.98;;;;;;;8.05;63.48;101629.44;5034624;28;20037;-75
2021/03/02 00:20:59;;;;;;;34.60;15.55;;;;;;;7.95;62.45;101629.19;5040362;28;20033;-75
2021/03/02 00:23:26;;;;;;;22.73;11.57;;;;;;;8.04;62.97;101633.03;5033871;28;20033;-75
2021/03/02 00:25:55;;;;;;;20.05;9.65;;;;;;;7.95;63.30;101631.84;5040221;28;20049;-75
2021/03/02 00:28:25;;;;;;;16.02;8.25;;;;;;;7.94;64.08;101626.66;5034062;28;20064;-75
2021/03/02 00:30:52;;;;;;;15.80;8.13;;;;;;;7.89;64.44;101610.28;5040367;28;20030;-75
2021/03/02 00:33:18;;;;;;;20.85;10.27;;;;;;;7.95;64.38;101621.28;5036181;28;20318;-75
2021/03/02 00:35:44;;;;;;;14.45;7.88;;;;;;;8.00;64.86;101615.72;5040326;28;20049;-69
2021/03/02 00:38:10;;;;;;;16.65;9.77;;;;;;;7.85;63.51;101622.81;5035058;28;20057;-69
2021/03/02 00:40:35;;;;;;;20.38;9.25;;;;;;;7.90;63.13;101619.91;5043985;28;20254;-69
2021/03/02 00:43:01;;;;;;;16.52;9.13;;;;;;;7.75;64.01;101620.88;5038028;28;20311;-69
2021/03/02 00:45:26;;;;;;;17.35;8.70;;;;;;;7.47;63.59;101609.44;5043649;28;20061;-69
2021/03/02 00:47:53;;;;;;;19.42;9.10;;;;;;;7.35;64.86;101618.97;5037507;28;20037;-69
2021/03/02 00:50:19;;;;;;;19.23;9.60;;;;;;;7.34;64.52;101619.91;5036723;28;20088;-69
2021/03/02 00:52:45;;;;;;;24.73;11.40;;;;;;;7.33;64.79;101620.84;5043097;28;20265;-69
2021/03/02 00:55:10;;;;;;;25.05;11.98;;;;;;;7.30;64.86;101612.31;5042079;28;20044;-75
2021/03/02 00:57:37;;;;;;;46.42;15.95;;;;;;;7.36;65.17;101612.75;5041022;28;20045;-69
2021/03/02 01:00:05;;;;;;;42.60;14.57;;;;;;;7.54;64.24;101613.38;5036597;28;20103;-69
2021/03/02 01:02:31;;;;;;;41.25;15.57;;;;;;;7.61;63.83;101609.44;5039632;28;20236;-75
2021/03/02 01:04:56;;;;;;;48.25;15.15;;;;;;;7.69;63.99;101612.41;5042053;28;20045;-75
2021/03/02 01:07:22;;;;;;;26.15;12.02;;;;;;;7.58;64.52;101611.41;5039692;28;20022;-77
2021/03/02 01:09:47;;;;;;;21.42;9.57;;;;;;;7.66;64.04;101614.41;5041708;28;20089;-78
2021/03/02 01:12:13;;;;;;;21.83;10.82;;;;;;;7.78;63.59;101613.63;5040990;28;20385;-78
2021/03/02 01:14:38;;;;;;;18.88;10.05;;;;;;;7.82;63.35;101614.25;5040587;28;20029;-78
2021/03/02 01:17:04;;;;;;;21.98;12.25;;;;;;;7.76;63.13;101606.75;5038918;28;20044;-78
2021/03/02 01:19:30;;;;;;;26.60;13.13;;;;;;;7.91;62.89;101614.53;5041865;28;20036;-78
2021/03/02 01:21:55;;;;;;;28.58;13.43;;;;;;;7.96;62.95;101611.59;5037341;28;20026;-75
2021/03/02 01:24:21;;;;;;;28.70;13.02;;;;;;;8.09;62.85;101612.47;5040806;28;20041;-75
2021/03/02 01:26:46;;;;;;;23.63;11.23;;;;;;;8.16;62.20;101605.84;5043177;28;20029;-75
2021/03/02 01:29:12;;;;;;;25.83;12.65;;;;;;;7.88;62.75;101604.16;5039814;28;20049;-69
2021/03/02 01:31:37;;;;;;;22.00;11.80;;;;;;;7.88;63.64;101592.78;5042325;28;20254;-69
2021/03/02 01:34:03;;;;;;;17.38;9.82;;;;;;;7.79;63.98;101593.38;5037643;28;20331;-68
2021/03/02 01:36:29;;;;;;;17.65;9.13;;;;;;;7.82;63.90;101582.63;5042934;28;20342;-75
2021/03/02 01:38:54;;;;;;;14.98;9.23;;;;;;;7.66;64.98;101564.31;5037770;28;20126;-69
2021/03/02 01:41:20;;;;;;;18.67;8.93;;;;;;;7.85;64.66;101575.34;5043070;28;20299;-69
2021/03/02 01:43:45;;;;;;;19.23;9.00;;;;;;;8.12;63.05;101587.69;5036241;28;20040;-69
2021/03/02 01:46:11;;;;;;;15.95;9.02;;;;;;;7.82;63.98;101583.47;5042919;28;20037;-69
2021/03/02 01:48:38;;;;;;;25.25;11.70;;;;;;;7.49;65.92;101588.28;5037888;28;20040;-69
2021/03/02 01:51:05;;;;;;;18.60;10.70;;;;;;;7.43;66.99;101581.59;5042681;28;20239;-69
2021/03/02 01:53:31;;;;;;;17.27;10.00;;;;;;;7.36;67.94;101583.78;5034026;28;20230;-69
2021/03/02 01:55:57;;;;;;;14.60;8.90;;;;;;;7.48;66.88;101582.16;5042595;28;20052;-75
2021/03/02 01:58:27;;;;;;;18.23;9.13;;;;;;;7.61;66.53;101590.97;5033252;28;20030;-69
2021/03/02 02:00:57;;;;;;;23.95;11.25;;;;;;;7.61;66.61;101585.69;5041875;28;20036;-75
2021/03/02 02:03:41;;;;;;;23.23;11.45;;;;;;;7.51;67.08;101591.66;5037201;28;20041;-75
2021/03/02 02:06:15;;;;;;;21.25;11.38;;;;;;;7.27;67.56;101586.94;5041194;28;20025;-75
2021/03/02 02:08:48;;;;;;;25.83;12.10;;;;;;;7.19;67.11;101591.84;5034511;28;20041;-75
2021/03/02 02:11:29;;;;;;;41.67;15.80;;;;;;;7.13;67.90;101600.13;5041356;28;20068;-69
2021/03/02 02:14:03;;;;;;;32.60;14.57;;;;;;;7.31;67.03;101595.53;5036664;28;20051;-69
2021/03/02 02:16:31;;;;;;;18.73;10.65;;;;;;;7.49;66.12;101593.53;5038903;28;20374;-69
2021/03/02 02:18:57;;;;;;;17.10;10.05;;;;;;;7.33;67.03;101593.66;5038725;28;20053;-69
2021/03/02 02:21:55;;;;;;;23.42;12.80;;;;;;;7.55;66.41;101599.28;5039736;28;20223;-69
2021/03/02 02:24:28;;;;;;;19.02;9.80;;;;;;;7.53;66.09;101600.31;5037913;28;20037;-69
2021/03/02 02:26:56;;;;;;;23.52;12.15;;;;;;;7.54;66.35;101602.84;5039885;28;20099;-69
2021/03/02 02:29:30;;;;;;;25.10;12.25;;;;;;;7.63;66.33;101607.53;5038130;28;20101;-75
2021/03/02 02:31:58;;;;;;;25.90;12.93;;;;;;;7.52;66.40;101609.16;5035953;28;20052;-69
2021/03/02 02:34:25;;;;;;;31.55;14.77;;;;;;;7.64;65.15;101614.50;5038607;28;20026;-75
2021/03/02 02:36:54;;;;;;;33.28;16.27;;;;;;;7.87;64.37;101605.13;5039868;28;20223;-75
2021/03/02 02:39:21;;;;;;;36.35;16.52;;;;;;;7.87;65.14;101610.38;5038913;28;20056;-69
2021/03/02 02:41:48;;;;;;;38.35;16.88;;;;;;;7.88;64.38;101612.09;5038025;28;20048;-68
2021/03/02 02:44:15;;;;;;;33.78;16.30;;;;;;;7.76;65.68;101617.31;5034206;28;20060;-69
2021/03/02 02:46:42;;;;;;;35.90;16.77;;;;;;;7.80;64.96;101611.72;5037539;28;20037;-69
2021/03/02 02:49:11;;;;;;;29.83;13.98;;;;;;;8.13;64.08;101621.88;5034653;28;20049;-69
2021/03/02 02:51:38;;;;;;;26.50;13.35;;;;;;;8.08;63.98;101623.97;5037755;28;20573;-69
2021/03/02 02:54:05;;;;;;;25.60;12.50;;;;;;;7.90;64.36;101622.53;5034266;28;20033;-69
2021/03/02 02:56:32;;;;;;;24.77;12.32;;;;;;;7.86;64.96;101618.41;5037429;28;20212;-75
2021/03/02 02:59:08;;;;;;;22.83;12.75;;;;;;;7.71;65.58;101620.22;5037320;28;20036;-69
2021/03/02 03:01:39;;;;;;;21.20;12.18;;;;;;;7.87;65.47;101622.72;5037308;28;20033;-75
2021/03/02 03:04:07;;;;;;;23.77;12.05;;;;;;;7.68;65.93;101623.91;5035684;28;20093;-69
2021/03/02 03:06:37;;;;;;;20.63;11.68;;;;;;;7.59;66.59;101616.59;5033911;28;20267;-75
2021/03/02 03:09:05;;;;;;;19.98;11.50;;;;;;;7.57;66.55;101628.16;5033915;28;20095;-75
2021/03/02 03:11:36;;;;;;;224.15;72.57;;;;;;;7.65;65.83;101626.75;5037537;28;20030;-75
2021/03/02 03:14:05;;;;;;;35.35;16.48;;;;;;;7.90;65.60;101627.81;5048100;28;20133;-75
2021/03/02 03:16:33;;;;;;;22.15;12.10;;;;;;;7.73;66.19;101633.31;5038323;28;20238;-75
2021/03/02 03:19:00;;;;;;;19.83;11.57;;;;;;;7.71;66.21;101633.41;5038927;28;20033;-75
2021/03/02 03:21:27;;;;;;;19.88;11.93;;;;;;;7.53;66.60;101624.03;5038853;28;20042;-75
2021/03/02 03:23:55;;;;;;;19.45;11.65;;;;;;;7.55;67.54;101632.69;5036796;28;20079;-75
2021/03/02 03:26:24;;;;;;;20.70;11.50;;;;;;;7.45;68.72;101642.13;5040764;28;20033;-75
2021/03/02 03:28:52;;;;;;;19.92;11.60;;;;;;;7.39;68.75;101639.88;5034561;28;20037;-75
2021/03/02 03:31:18;;;;;;;20.38;12.18;;;;;;;7.30;68.13;101636.84;5037675;28;20060;-75
2021/03/02 03:33:45;;;;;;;21.40;11.45;;;;;;;7.14;68.43;101622.06;5034389;28;20033;-69
2021/03/02 03:36:12;;;;;;;25.75;12.65;;;;;;;7.15;68.51;101635.13;5041148;28;20252;-75
2021/03/02 03:38:38;;;;;;;22.00;11.55;;;;;;;7.33;67.63;101633.19;5034545;28;20053;-75
2021/03/02 03:41:04;;;;;;;22.55;11.77;;;;;;;7.31;67.96;101632.44;5040823;28;20037;-69
2021/03/02 03:43:29;;;;;;;19.80;11.25;;;;;;;7.32;67.79;101632.34;5035025;28;20112;-69
2021/03/02 03:45:55;;;;;;;22.30;12.07;;;;;;;7.36;68.05;101635.63;5039950;28;20373;-69
2021/03/02 03:48:21;;;;;;;17.05;10.77;;;;;;;7.57;67.59;101630.81;5034789;28;20029;-69
2021/03/02 03:50:47;;;;;;;21.58;12.00;;;;;;;7.57;67.59;101638.72;5039103;28;20093;-69
2021/03/02 03:53:15;;;;;;;21.42;11.68;;;;;;;7.78;65.77;101631.22;5035650;28;20037;-69
2021/03/02 03:55:43;;;;;;;24.55;12.05;;;;;;;7.52;66.42;101631.09;5039040;28;20087;-69
2021/03/02 03:58:14;;;;;;;23.45;12.00;;;;;;;7.48;67.37;101626.97;5034563;28;20037;-69
2021/03/02 04:00:39;;;;;;;18.02;11.35;;;;;;;7.48;68.34;101634.03;5039461;28;20060;-69
2021/03/02 04:03:07;;;;;;;24.80;12.65;;;;;;;7.34;68.63;101630.47;5033586;28;20041;-75
2021/03/02 04:05:33;;;;;;;25.45;12.13;;;;;;;7.36;68.32;101635.63;5037248;28;20033;-75
2021/03/02 04:07:59;;;;;;;26.98;12.57;;;;;;;7.36;68.30;101628.56;5033929;28;20046;-69
2021/03/02 04:10:26;;;;;;;23.13;13.13;;;;;;;7.39;68.11;101627.53;5038469;28;20067;-74
2021/03/02 04:12:51;;;;;;;22.13;12.18;;;;;;;7.19;68.40;101627.91;5034707;28;20056;-75
2021/03/02 04:15:17;;;;;;;24.55;14.52;;;;;;;7.12;67.80;101630.06;5037453;28;20315;-75
2021/03/02 04:17:54;;;;;;;28.13;14.90;;;;;;;7.04;67.74;101624.41;5040387;28;20037;-75
2021/03/02 04:20:20;;;;;;;25.40;12.95;;;;;;;6.78;69.60;101588.28;5042392;28;20430;-75
2021/03/02 04:22:46;;;;;;;28.67;15.75;;;;;;;7.04;68.77;101627.03;5039294;28;20049;-75
2021/03/02 04:25:12;;;;;;;33.80;16.77;;;;;;;7.20;68.08;101630.44;5041892;28;20033;-69
2021/03/02 04:27:37;;;;;;;46.42;20.25;;;;;;;7.34;67.01;101633.09;5040348;28;20037;-72
2021/03/02 04:30:04;;;;;;;41.92;19.45;;;;;;;7.38;67.29;101625.00;5038355;28;20036;-69
2021/03/02 04:32:29;;;;;;;45.33;21.98;;;;;;;7.65;66.12;101642.56;5040139;28;20105;-69
2021/03/02 04:34:55;;;;;;;47.65;24.88;;;;;;;7.61;66.45;101643.69;5041908;28;20042;-69
2021/03/02 04:37:20;;;;;;;43.60;20.95;;;;;;;7.60;66.14;101635.88;5040151;28;20096;-69
2021/03/02 04:39:45;;;;;;;38.63;19.85;;;;;;;7.44;66.21;101595.63;5041544;28;20037;-75
2021/03/02 04:42:11;;;;;;;36.55;18.48;;;;;;;7.73;65.78;101633.31;5040133;28;20038;-75
2021/03/02 04:44:36;;;;;;;33.13;18.33;;;;;;;8.04;65.31;101633.03;5041083;28;20277;-75
2021/03/02 04:47:02;;;;;;;36.30;17.27;;;;;;;7.86;65.52;101628.94;5040595;28;20037;-75
2021/03/02 04:49:27;;;;;;;32.95;19.20;;;;;;;7.88;64.84;101632.34;5036856;28;20091;-75
2021/03/02 04:51:53;;;;;;;39.15;20.10;;;;;;;7.78;65.63;101634.72;5041783;28;20054;-75
2021/03/02 04:54:18;;;;;;;37.70;19.17;;;;;;;7.95;65.22;101631.84;5038838;28;20120;-75
2021/03/02 04:56:44;;;;;;;37.40;20.40;;;;;;;7.80;65.74;101635.47;5043397;28;20335;-72
2021/03/02 04:59:09;;;;;;;39.17;18.73;;;;;;;7.78;65.40;101632.06;5038130;28;20037;-69
2021/03/02 05:01:35;;;;;;;37.80;19.75;;;;;;;7.62;67.14;101626.09;5039687;28;20045;-75
2021/03/02 05:04:01;;;;;;;38.40;19.90;;;;;;;7.74;66.51;101625.31;5038053;28;20033;-69
2021/03/02 05:06:27;;;;;;;44.00;21.02;;;;;;;7.85;65.36;101624.63;5041002;28;20100;-69
2021/03/02 05:08:52;;;;;;;40.80;19.75;;;;;;;7.79;65.67;101646.13;5037660;28;20045;-75
2021/03/02 05:11:18;;;;;;;37.90;20.08;;;;;;;7.98;65.38;101650.09;5042304;28;20076;-69
2021/03/02 05:13:44;;;;;;;39.30;20.15;;;;;;;7.76;66.10;101643.66;5036090;28;20224;-69
2021/03/02 05:16:11;;;;;;;40.90;21.35;;;;;;;7.66;66.35;101644.25;5043371;28;20029;-69
2021/03/02 05:18:36;;;;;;;40.90;21.27;;;;;;;7.62;66.13;101632.22;5035313;28;20056;-69
2021/03/02 05:21:02;;;;;;;29.85;17.55;;;;;;;7.71;66.44;101651.03;5043050;28;20033;-69
2021/03/02 05:23:28;;;;;;;29.10;16.95;;;;;;;7.89;65.43;101655.13;5037389;28;20049;-69
2021/03/02 05:25:53;;;;;;;28.95;17.27;;;;;;;7.80;66.06;101658.34;5041415;28;20270;-75
2021/03/02 05:28:18;;;;;;;30.15;17.00;;;;;;;8.01;64.88;101659.63;5037065;28;20411;-75
2021/03/02 05:30:44;;;;;;;28.13;15.90;;;;;;;7.84;65.86;101658.06;5038191;28;20056;-75
2021/03/02 05:33:09;;;;;;;30.00;14.52;;;;;;;7.76;65.31;101652.44;5037037;28;20033;-75
2021/03/02 05:35:35;;;;;;;25.58;14.57;;;;;;;7.87;66.13;101654.38;5038212;28;20320;-69
2021/03/02 05:38:00;;;;;;;26.65;15.50;;;;;;;7.82;64.05;101620.38;5038620;28;20044;-69
2021/03/02 05:40:26;;;;;;;30.65;15.43;;;;;;;7.93;65.47;101662.75;5040890;28;20031;-75
2021/03/02 05:42:51;;;;;;;31.83;16.90;;;;;;;8.20;64.20;101660.13;5038927;28;20040;-75
2021/03/02 05:45:17;;;;;;;31.00;18.25;;;;;;;8.07;64.52;101661.84;5040506;28;20025;-75
2021/03/02 05:47:43;;;;;;;32.70;18.00;;;;;;;7.77;65.43;101664.66;5036776;28;20032;-75
2021/03/02 05:50:09;;;;;;;31.23;18.38;;;;;;;7.79;65.75;101672.47;5037369;28;20037;-75
2021/03/02 05:52:35;;;;;;;53.42;24.08;;;;;;;7.84;65.09;101644.03;5034565;28;20064;-75
2021/03/02 05:55:02;;;;;;;118.30;55.80;;;;;;;7.80;65.65;101663.63;5038524;28;20037;-75
2021/03/02 05:57:29;;;;;;;84.18;39.28;;;;;;;7.79;65.73;101660.13;5038372;28;20032;-69
2021/03/02 05:59:54;;;;;;;69.50;32.72;;;;;;;7.83;66.07;101663.44;5039885;28;20116;-71
2021/03/02 06:02:21;;;;;;;92.05;39.25;;;;;;;7.93;66.21;101668.03;5037451;28;20354;-78
2021/03/02 06:04:49;;;;;;;105.10;51.97;;;;;;;7.92;66.28;101665.47;5038371;28;20033;-77
2021/03/02 06:07:15;;;;;;;69.07;34.50;;;;;;;8.12;65.75;101666.84;5038442;28;20050;-78
2021/03/02 06:09:41;;;;;;;66.13;34.95;;;;;;;8.19;65.53;101668.97;5037875;28;20039;-71
2021/03/02 06:12:06;;;;;;;72.40;35.25;;;;;;;8.17;66.41;101670.88;5038382;28;20041;-71
2021/03/02 06:14:34;;;;;;;72.70;34.17;;;;;;;8.00;66.27;101665.84;5037120;28;20041;-70
2021/03/02 06:17:02;;;;;;;65.30;30.85;;;;;;;7.85;67.02;101664.19;5038459;28;20044;-70
2021/03/02 06:19:44;;;;;;;72.57;37.60;;;;;;;7.96;66.78;101685.44;5036939;28;20068;-71
2021/03/02 06:22:39;;;;;;;50.35;25.27;;;;;;;7.87;67.24;101680.75;5035137;28;20022;-70
2021/03/02 06:25:27;;;;;;;77.18;34.65;;;;;;;7.95;67.00;101683.75;5037187;28;20311;-71
2021/03/02 06:27:53;;;;;;;170.60;56.10;;;;;;;7.98;67.30;101680.91;5036929;28;20048;-71
2021/03/02 06:30:19;;;;;;;326.25;89.90;;;;;;;8.15;66.31;101682.47;5039946;28;20029;-77
2021/03/02 06:32:47;;;;;;;81.43;38.55;;;;;;;8.21;65.74;101675.00;5037846;28;20318;-71
2021/03/02 06:35:32;;;;;;;101.40;37.17;;;;;;;8.41;65.46;101678.19;5035849;28;20054;-77
2021/03/02 06:37:58;;;;;;;62.65;26.65;;;;;;;8.47;64.38;101675.16;5037411;28;20033;-77
2021/03/02 06:40:43;;;;;;;61.45;28.20;;;;;;;8.43;64.96;101679.78;5040267;28;20227;-77
2021/03/02 06:43:35;;;;;;;60.33;27.13;;;;;;;8.37;64.82;101672.28;5034910;28;20049;-77
2021/03/02 06:46:06;;;;;;;125.63;41.35;;;;;;;8.50;64.13;101677.59;5040711;28;20026;-77
2021/03/02 06:48:33;;;;;;;49.90;23.65;;;;;;;8.64;62.88;101674.88;5035224;28;20033;-77
2021/03/02 06:50:59;;;;;;;47.72;23.17;;;;;;;8.80;61.68;101669.41;5037155;28;20039;-77
2021/03/02 06:53:25;;;;;;;56.03;26.42;;;;;;;8.87;61.18;101673.31;5036020;28;20044;-77
2021/03/02 06:55:51;;;;;;;61.03;26.88;;;;;;;8.90;61.99;101683.69;5039575;28;20025;-77
2021/03/02 06:58:18;;;;;;;49.95;25.88;;;;;;;9.00;60.69;101671.53;5034952;28;20037;-77
2021/03/02 07:00:55;;;;;;;67.93;26.88;;;;;;;9.13;60.16;101677.66;5040773;28;20227;-77
2021/03/02 07:03:27;;;;;;;64.85;31.50;;;;;;;9.38;58.93;101676.84;5034997;28;20050;-71
2021/03/02 07:05:54;;;;;;;79.47;34.92;;;;;;;9.50;58.79;101667.19;5040990;28;20103;-71
2021/03/02 07:08:20;;;;;;;70.97;37.75;;;;;;;9.58;58.98;101657.78;5034106;28;20069;-71
2021/03/02 07:10:50;;;;;;;76.30;39.42;;;;;;;9.67;57.90;101658.06;5040084;28;20041;-71
2021/03/02 07:13:17;;;;;;;53.70;29.75;;;;;;;9.75;57.68;101667.16;5033978;28;20034;-71
2021/03/02 07:15:44;;;;;;;54.33;26.00;;;;;;;9.98;56.57;101670.78;5039451;28;20217;-71
2021/03/02 07:18:19;;;;;;;47.38;24.38;;;;;;;10.02;56.29;101655.53;5033970;28;20034;-71
2021/03/02 07:20:48;;;;;;;31.75;15.82;;;;;;;10.29;54.06;101660.63;5038176;28;20037;-71
2021/03/02 07:23:19;;;;;;;32.50;15.00;;;;;;;10.50;52.89;101664.34;5035853;28;20045;-71
2021/03/02 07:25:47;;;;;;;30.58;15.98;;;;;;;10.68;53.41;101665.63;5039279;28;20045;-77
2021/03/02 07:28:14;;;;;;;27.15;13.55;;;;;;;11.07;52.44;101666.19;5035232;28;20083;-69
2021/03/02 07:30:40;;;;;;;14.07;6.82;;;;;;;11.48;49.18;101657.69;5038980;28;20299;-69
2021/03/02 07:33:06;;;;;;;13.48;7.28;;;;;;;11.96;47.58;101654.75;5036745;28;20038;-69
2021/03/02 07:35:32;;;;;;;20.17;8.20;;;;;;;12.13;47.89;101647.09;5035452;28;20033;-75
2021/03/02 07:38:20;;;;;;;13.02;7.25;;;;;;;12.30;47.33;101648.34;5035842;28;20288;-75
2021/03/02 07:40:48;;;;;;;9.38;6.00;;;;;;;12.42;45.53;101647.34;5039490;28;20034;-69
2021/03/02 07:43:30;;;;;;;11.27;5.55;;;;;;;12.57;43.80;101647.06;5035827;28;20223;-69
2021/03/02 07:45:58;;;;;;;7.05;4.38;;;;;;;12.66;43.89;101641.81;5039760;28;20060;-69
2021/03/02 07:48:24;;;;;;;6.93;4.40;;;;;;;12.77;42.61;101643.56;5035339;28;20037;-69
2021/03/02 07:51:10;;;;;;;4.97;3.38;;;;;;;12.44;43.30;101636.56;5036463;28;20331;-69
2021/03/02 07:53:35;;;;;;;4.57;3.20;;;;;;;12.72;42.50;101643.94;5034546;28;20344;-69
2021/03/02 07:56:16;;;;;;;5.65;3.92;;;;;;;13.06;41.21;101623.28;5040084;28;20037;-69
2021/03/02 07:59:05;;;;;;;9.82;4.65;;;;;;;13.23;41.12;101626.34;5034261;28;20034;-76
2021/03/02 08:01:31;;;;;;;8.65;4.22;;;;;;;13.25;41.78;101629.72;5037294;28;20330;-69
2021/03/02 08:04:15;;;;;;;7.32;4.20;;;;;;;13.31;41.92;101619.38;5036149;28;20308;-75
2021/03/02 08:06:50;;;;;;;5.45;3.20;;;;;;;13.27;40.75;101617.97;5036767;28;20041;-69
2021/03/02 08:09:21;;;;;;;8.02;4.70;;;;;;;13.61;41.04;101615.88;5035749;28;20374;-75
2021/03/02 08:11:47;;;;;;;5.05;3.50;;;;;;;13.54;39.94;101611.22;5036430;28;20355;-69
2021/03/02 08:14:16;;;;;;;7.72;3.95;;;;;;;13.53;40.16;101610.38;5036284;28;20021;-69
2021/03/02 08:16:54;;;;;;;7.78;4.07;;;;;;;13.65;40.60;101605.78;5036407;28;20808;-69
2021/03/02 08:19:38;;;;;;;4.57;2.97;;;;;;;13.73;40.14;101604.13;5035481;28;20071;-69
2021/03/02 08:24:52;;;;;;;5.43;3.15;;;;;;;13.52;40.21;101595.34;5035170;28;20041;-69
2021/03/02 08:27:35;;;;;;;4.43;3.00;;;;;;;13.57;40.31;101600.31;5035858;28;20033;-69
2021/03/02 08:30:00;;;;;;;3.38;2.85;;;;;;;13.83;39.08;101593.47;5037646;28;20101;-69
2021/03/02 08:32:29;;;;;;;6.45;2.95;;;;;;;13.72;37.56;101591.78;5036401;28;20034;-69
2021/03/02 08:34:55;;;;;;;4.25;2.72;;;;;;;13.69;38.49;101596.53;5036322;28;20025;-75
2021/03/02 08:37:37;;;;;;;4.90;2.45;;;;;;;13.76;38.19;101586.19;5035031;28;20097;-75
2021/03/02 08:40:03;;;;;;;5.00;2.75;;;;;;;13.74;38.35;101597.81;5037935;28;20025;-69
2021/03/02 08:42:29;;;;;;;5.18;3.10;;;;;;;13.68;37.99;101600.19;5036260;28;20065;-69
2021/03/02 08:45:09;;;;;;;5.43;3.33;;;;;;;13.47;38.96;101588.75;5037725;28;20235;-69
2021/03/02 08:47:36;;;;;;;6.97;4.22;;;;;;;13.13;39.48;101590.84;5036011;28;20029;-69
2021/03/02 08:50:03;;;;;;;7.70;3.67;;;;;;;13.36;39.15;101587.88;5034593;28;20204;-69
2021/03/02 08:52:42;;;;;;;6.53;3.70;;;;;;;13.61;39.02;101586.59;5035943;28;20129;-69
2021/03/02 08:55:08;;;;;;;6.63;3.22;;;;;;;13.43;37.79;101588.19;5036784;28;20026;-69
2021/03/02 08:57:46;;;;;;;6.03;2.95;;;;;;;13.64;38.98;101583.66;5037111;28;20032;-75
2021/03/02 09:00:16;;;;;;;7.32;3.83;;;;;;;13.61;39.18;101578.59;5038700;28;20328;-75
2021/03/02 09:02:45;;;;;;;5.88;3.75;;;;;;;13.53;38.90;101577.59;5039971;28;20055;-69
2021/03/02 09:05:18;;;;;;;5.03;3.40;;;;;;;13.72;38.38;101578.47;5041026;28;20104;-75
2021/03/02 09:08:09;;;;;;;4.93;3.40;;;;;;;13.87;37.42;101575.41;5037502;28;20312;-71
2021/03/02 09:10:35;;;;;;;7.53;5.15;;;;;;;13.54;38.60;101573.97;5042339;28;20435;-75
2021/03/02 09:13:06;;;;;;;10.40;5.97;;;;;;;13.66;37.98;101579.03;5037174;28;20040;-76
2021/03/02 09:15:42;;;;;;;11.40;5.50;;;;;;;13.96;37.58;101569.25;5041424;28;20093;-77
2021/03/02 09:18:15;;;;;;;15.50;6.82;;;;;;;13.82;38.39;101565.19;5036597;28;20100;-78
2021/03/02 09:20:51;;;;;;;9.52;5.43;;;;;;;13.70;37.61;101567.13;5039717;28;20044;-77
2021/03/02 09:23:17;;;;;;;9.10;5.90;;;;;;;13.64;37.14;101559.69;5039856;28;20056;-75
2021/03/02 09:25:43;;;;;;;14.20;6.72;;;;;;;13.74;38.75;101570.34;5041543;28;20033;-74
2021/03/02 09:28:19;;;;;;;14.68;7.13;;;;;;;13.56;39.66;101559.53;5038193;28;20038;-75
2021/03/02 09:30:46;;;;;;;15.18;7.22;;;;;;;13.50;38.94;101567.19;5040229;28;20093;-75
2021/03/02 09:33:13;;;;;;;13.93;7.55;;;;;;;13.34;40.36;101571.22;5038335;28;20083;-75
2021/03/02 09:35:38;;;;;;;12.88;7.50;;;;;;;13.29;39.61;101578.75;5035409;28;20283;-68
2021/03/02 09:38:04;;;;;;;14.77;7.32;;;;;;;13.32;39.48;101567.84;5038929;28;20037;-75
2021/03/02 09:40:40;;;;;;;16.88;7.93;;;;;;;13.47;39.20;101560.31;5040968;28;20030;-72
2021/03/02 09:43:05;;;;;;;13.00;6.88;;;;;;;13.32;39.47;101565.19;5038505;28;20030;-69
2021/03/02 09:45:31;;;;;;;11.27;6.80;;;;;;;13.24;39.37;101556.19;5040850;28;20095;-69
2021/03/02 09:47:59;;;;;;;12.80;6.45;;;;;;;13.15;39.76;101557.81;5038586;28;20049;-69
2021/03/02 09:50:25;;;;;;;13.30;7.40;;;;;;;13.16;40.46;101559.50;5037319;28;20040;-69
2021/03/02 09:52:53;;;;;;;11.15;7.32;;;;;;;13.18;40.63;101556.75;5038160;28;20045;-69
2021/03/02 09:55:19;;;;;;;12.05;7.07;;;;;;;13.29;38.44;101554.81;5040574;28;20033;-69
2021/03/02 09:57:58;;;;;;;11.48;6.72;;;;;;;13.15;40.11;101555.16;5038822;28;20109;-75
2021/03/02 10:00:30;;;;;;;10.85;6.25;;;;;;;13.14;39.79;101544.66;5041355;28;20083;-75
2021/03/02 10:03:04;;;;;;;12.18;6.45;;;;;;;13.04;39.64;101539.31;5037204;28;20037;-75
2021/03/02 10:05:52;;;;;;;14.57;6.85;;;;;;;12.98;39.88;101539.84;5041596;28;20136;-69
2021/03/02 10:08:42;;;;;;;9.10;6.22;;;;;;;13.06;40.69;101535.53;5029202;28;20053;-69
2021/03/02 10:11:10;;;;;;;9.10;5.75;;;;;;;12.81;39.31;101500.59;5034108;28;20041;-75
2021/03/02 10:13:37;;;;;;;8.30;6.00;;;;;;;13.07;38.86;101523.06;5033994;28;20088;-75
2021/03/02 10:16:39;;;;;;;8.60;5.43;;;;;;;13.35;38.02;101532.16;5041631;28;20465;-75
2021/03/02 10:19:20;;;;;;;10.27;7.10;;;;;;;12.93;38.73;101520.78;5036796;28;20041;-75
2021/03/02 10:21:58;;;;;;;10.70;5.97;;;;;;;12.93;39.52;101520.78;5037935;28;20320;-75
2021/03/02 10:24:27;;;;;;;11.50;6.63;;;;;;;13.13;38.98;101521.69;5036985;28;20026;-75
2021/03/02 10:27:00;;;;;;;10.90;5.65;;;;;;;13.18;37.47;101511.53;5038302;28;20026;-69
2021/03/02 10:29:29;;;;;;;8.90;5.70;;;;;;;13.08;38.95;101509.66;5038785;28;20037;-75
2021/03/02 10:31:54;;;;;;;11.57;6.97;;;;;;;13.03;39.92;101511.88;5038196;28;20049;-75
2021/03/02 10:34:19;;;;;;;17.20;10.00;;;;;;;12.86;39.60;101504.53;5038138;28;20025;-69
2021/03/02 10:36:52;;;;;;;10.90;6.32;;;;;;;12.56;39.83;101512.50;5037934;28;20067;-68
2021/03/02 10:39:17;;;;;;;12.00;7.10;;;;;;;12.61;39.31;101499.66;5037453;28;20033;-75
2021/03/02 10:41:44;;;;;;;9.15;6.03;;;;;;;12.68;39.19;101491.03;5039059;28;20029;-68
2021/03/02 10:44:11;;;;;;;9.73;6.35;;;;;;;12.73;39.14;101480.00;5037353;28;20025;-69
2021/03/02 10:46:37;;;;;;;12.43;6.68;;;;;;;12.72;38.49;101487.13;5038145;28;20088;-69
2021/03/02 10:49:03;;;;;;;12.43;7.30;;;;;;;12.62;39.10;101474.78;5034598;28;20049;-69
2021/03/02 10:51:30;;;;;;;15.65;6.03;;;;;;;12.55;39.47;101470.97;5038585;28;20035;-69
2021/03/02 10:53:56;;;;;;;12.57;6.07;;;;;;;12.75;38.30;101464.75;5037461;28;20041;-68
2021/03/02 10:56:22;;;;;;;23.23;8.85;;;;;;;12.71;37.76;101448.22;5040181;28;20021;-68
2021/03/02 10:58:49;;;;;;;48.67;12.63;;;;;;;12.53;37.49;101464.94;5035025;28;20029;-75
2021/03/02 11:01:16;;;;;;;32.90;10.90;;;;;;;12.33;37.55;101456.84;5041563;28;20026;-74
2021/03/02 11:03:43;;;;;;;8.65;5.40;;;;;;;12.70;37.18;101451.03;5033961;28;20037;-68
2021/03/02 11:06:11;;;;;;;12.52;5.40;;;;;;;12.57;36.40;101450.41;5038131;28;20350;-68
2021/03/02 11:08:36;;;;;;;14.80;6.63;;;;;;;12.47;37.66;101437.06;5036098;28;20048;-75
2021/03/02 11:11:02;;;;;;;9.30;5.85;;;;;;;12.66;38.32;101433.66;5040997;28;20033;-69
2021/03/02 11:13:27;;;;;;;10.57;5.47;;;;;;;12.56;38.82;101424.81;5033469;28;20311;-71
2021/03/02 11:15:53;;;;;;;12.55;6.50;;;;;;;12.50;37.98;101415.56;5040360;28;20238;-69
2021/03/02 11:18:18;;;;;;;10.13;6.20;;;;;;;12.45;37.92;101389.38;5034047;28;20199;-69
2021/03/02 11:20:44;;;;;;;19.38;8.57;;;;;;;12.53;37.72;101411.78;5039426;28;20063;-69
2021/03/02 11:23:14;;;;;;;15.85;8.10;;;;;;;12.51;36.66;101405.78;5033873;28;20087;-69
2021/03/02 11:25:40;;;;;;;14.15;8.68;;;;;;;12.53;36.91;101402.00;5037334;28;20017;-75
2021/03/02 11:28:07;;;;;;;11.95;7.97;;;;;;;12.49;37.73;101389.97;5036286;28;20092;-75
2021/03/02 11:30:33;;;;;;;12.32;8.05;;;;;;;12.43;37.67;101398.44;5039219;28;20025;-71